createdAt,value
2018-07-10T00:23:13.516Z,99.90
2018-07-10T00:26:08.653Z,99.90
2018-07-10T00:42:13.017Z,99.90
2018-07-10T00:45:02.691Z,99.90
2018-07-10T00:50:52.892Z,99.90
2018-07-10T00:53:28.887Z,99.90
2018-07-10T01:28:40.847Z,99.90
2018-07-10T01:31:23.025Z,99.90
2018-07-10T01:34:05.643Z,99.90
2018-07-10T01:37:04.998Z,99.90
2018-07-10T12:02:54.830Z,99.90
2018-07-10T14:50:49.464Z,99.90
2018-07-10T14:53:38.508Z,99.90
2018-07-10T14:56:20.769Z,99.90
2018-07-10T14:59:14.689Z,99.90
2018-07-10T15:12:36.398Z,99.90
2018-07-10T15:18:43.157Z,99.90
2018-07-10T15:21:18.777Z,99.90
2018-07-10T15:24:49.294Z,99.90
2018-07-10T15:27:22.675Z,99.90
2018-07-10T15:29:56.583Z,99.90
2018-07-10T15:35:31.577Z,99.90
2018-07-10T15:38:07.956Z,99.90
2018-07-10T15:41:05.257Z,99.90
2018-07-10T15:43:37.543Z,99.90
2018-07-10T15:46:10.097Z,99.90
2018-07-10T15:48:43.813Z,99.90
2018-07-10T15:51:16.672Z,99.90
2018-07-10T15:56:39.109Z,99.90
2018-07-10T15:59:17.000Z,99.90
2018-07-10T16:01:50.089Z,99.90
2018-07-10T16:04:33.481Z,99.90
2018-07-10T16:07:08.333Z,99.90
2018-07-10T16:09:51.422Z,99.90
2018-07-10T16:12:25.305Z,99.90
2018-07-10T16:15:02.172Z,99.90
2018-07-10T16:17:35.850Z,99.90
2018-07-10T16:20:12.522Z,99.90
2018-07-10T16:22:47.271Z,99.90
2018-07-10T16:25:36.897Z,99.90
2018-07-10T16:28:25.286Z,99.90
2018-07-10T16:30:59.493Z,99.90
2018-07-10T16:33:36.031Z,99.90
2018-07-10T16:36:12.489Z,99.90
2018-07-10T16:38:47.349Z,99.90
2018-07-10T16:47:05.728Z,99.90
2018-07-10T16:49:49.483Z,99.90
2018-07-10T16:52:27.781Z,99.90
2018-07-10T16:55:03.293Z,99.90
2018-07-10T16:57:37.054Z,99.90
2018-07-10T17:00:23.248Z,99.90
2018-07-10T17:03:07.250Z,99.90
2018-07-10T17:05:39.625Z,99.90
2018-07-10T17:08:15.142Z,99.90
2018-07-10T17:10:54.556Z,97.20
2018-07-10T17:16:25.029Z,85.60
2018-07-10T17:19:00.969Z,72.90
2018-07-10T17:21:34.640Z,71.00
2018-07-10T17:24:07.392Z,77.30
2018-07-10T17:26:43.952Z,79.60
2018-07-10T17:29:18.370Z,71.50
2018-07-10T17:31:54.214Z,75.60
2018-07-10T17:37:14.515Z,67.00
2018-07-10T17:39:48.013Z,59.60
2018-07-10T17:42:20.580Z,60.70
2018-07-10T17:44:53.344Z,65.50
2018-07-10T17:47:27.035Z,72.10
2018-07-10T17:50:01.120Z,72.50
2018-07-10T17:52:33.815Z,65.00
2018-07-10T17:55:06.639Z,62.10
2018-07-10T17:57:42.761Z,66.20
2018-07-10T18:00:19.621Z,63.20
2018-07-10T18:02:52.047Z,60.40
2018-07-10T18:05:25.328Z,60.70
2018-07-10T18:07:58.417Z,60.90
2018-07-10T18:10:34.273Z,60.10
2018-07-10T18:13:07.331Z,58.60
2018-07-10T18:15:46.065Z,59.00
2018-07-10T18:18:20.983Z,58.60
2018-07-10T18:20:57.232Z,59.50
2018-07-10T18:23:32.618Z,59.80
2018-07-10T18:26:05.210Z,60.40
2018-07-10T18:28:42.005Z,58.80
2018-07-10T18:31:28.142Z,59.10
2018-07-10T18:36:41.621Z,56.30
2018-07-10T18:39:14.571Z,58.70
2018-07-10T18:41:48.354Z,59.20
2018-07-10T18:44:20.805Z,59.60
2018-07-10T18:46:56.720Z,59.50
2018-07-10T18:49:30.071Z,57.60
2018-07-10T18:52:03.544Z,57.20
2018-07-10T18:54:39.923Z,55.70
2018-07-10T18:57:38.770Z,55.90
2018-07-10T19:00:12.068Z,56.80
2018-07-10T19:02:54.601Z,55.90
2018-07-10T19:05:27.381Z,56.70
2018-07-10T19:08:01.226Z,54.70
2018-07-10T19:10:35.165Z,52.30
2018-07-10T19:13:13.025Z,53.20
2018-07-10T19:15:45.865Z,53.40
2018-07-10T19:18:37.611Z,52.00
2018-07-10T19:21:28.962Z,52.20
2018-07-10T19:24:08.452Z,52.20
2018-07-10T19:26:43.204Z,51.00
2018-07-10T19:29:28.710Z,52.90
2018-07-10T19:32:10.616Z,53.00
2018-07-10T19:34:45.232Z,55.30
2018-07-10T19:37:20.920Z,53.10
2018-07-10T19:39:59.331Z,52.10
2018-07-10T19:42:34.392Z,52.60
2018-07-10T19:45:20.174Z,51.30
2018-07-10T19:47:53.258Z,51.40
2018-07-10T19:50:33.174Z,51.60
2018-07-10T19:55:55.939Z,50.80
2018-07-10T19:58:35.317Z,50.40
2018-07-10T20:02:14.481Z,50.50
2018-07-10T20:04:57.745Z,52.50
2018-07-10T20:11:15.399Z,54.60
2018-07-10T20:13:55.430Z,55.70
2018-07-10T20:17:01.869Z,56.80
2018-07-10T20:20:50.328Z,58.10
2018-07-10T20:24:36.801Z,57.40
2018-07-10T20:28:25.131Z,53.90
2018-07-10T20:31:09.841Z,53.90
2018-07-10T20:33:58.052Z,56.10
2018-07-10T20:36:34.626Z,57.70
2018-07-10T20:39:11.899Z,57.50
2018-07-10T20:41:51.004Z,55.80
2018-07-10T20:44:24.641Z,53.00
2018-07-10T20:47:06.019Z,51.20
2018-07-10T20:50:19.468Z,51.80
2018-07-10T20:53:07.040Z,51.80
2018-07-10T20:56:06.835Z,52.40
2018-07-10T20:58:49.021Z,51.50
2018-07-10T21:01:31.488Z,51.30
2018-07-10T21:04:09.524Z,51.60
2018-07-10T21:06:52.527Z,53.50
2018-07-10T21:09:40.333Z,53.60
2018-07-10T21:12:23.146Z,53.40
2018-07-10T21:15:12.302Z,54.50
2018-07-10T21:20:01.796Z,52.50
2018-07-10T21:24:48.584Z,52.70
2018-07-10T21:29:37.064Z,51.80
2018-07-10T21:32:17.267Z,52.60
2018-07-10T21:38:57.798Z,57.90
2018-07-10T21:48:48.233Z,55.50
2018-07-10T21:51:23.567Z,55.40
2018-07-10T21:53:56.453Z,54.10
2018-07-10T21:56:28.917Z,54.00
2018-07-10T21:59:03.168Z,56.20
2018-07-10T22:14:50.809Z,56.20
2018-07-10T22:17:24.547Z,57.50
2018-07-10T22:20:02.103Z,57.20
2018-07-10T22:22:35.685Z,57.90
2018-07-10T22:25:11.477Z,60.50
2018-07-10T22:27:46.942Z,69.90
2018-07-10T22:30:34.351Z,82.60
2018-07-10T22:33:09.282Z,90.00
2018-07-10T22:35:42.815Z,93.30
2018-07-10T22:38:15.522Z,94.70
2018-07-10T22:40:55.747Z,93.20
2018-07-10T22:43:30.638Z,90.00
2018-07-10T22:46:03.099Z,90.50
2018-07-10T22:48:40.216Z,93.50
2018-07-10T22:51:20.854Z,92.70
2018-07-10T22:53:54.840Z,93.40
2018-07-10T22:56:27.757Z,95.90
2018-07-10T22:59:01.373Z,96.70
2018-07-10T23:01:41.978Z,96.80
2018-07-10T23:04:18.091Z,97.40
2018-07-10T23:06:51.353Z,98.00
2018-07-10T23:12:18.209Z,99.10
2018-07-10T23:14:52.012Z,99.90
2018-07-10T23:20:29.648Z,99.90
2018-07-10T23:23:04.565Z,99.90
2018-07-10T23:25:36.887Z,99.90
2018-07-10T23:30:58.447Z,99.90
2018-07-10T23:33:33.671Z,99.90
2018-07-10T23:42:14.498Z,99.90
2018-07-10T23:44:49.872Z,99.90
2018-07-10T23:47:35.533Z,99.90
2018-07-10T23:50:18.184Z,99.90
2018-07-10T23:53:55.016Z,99.90
2018-07-10T23:56:27.489Z,99.90
2018-07-10T23:59:03.476Z,99.90
